sensor_id;sensor_type;location;lat;lon;timestamp;temperature;humidity
66086;DHT22;52868;49.758;9.586;2023-02-16T00:01:47;4.00;76.90
66086;DHT22;52868;49.758;9.586;2023-02-16T00:04:27;3.90;76.60
66086;DHT22;52868;49.758;9.586;2023-02-16T00:06:54;4.00;76.80
66086;DHT22;52868;49.758;9.586;2023-02-16T00:09:20;4.00;76.80
66086;DHT22;52868;49.758;9.586;2023-02-16T00:11:47;3.90;77.00
66086;DHT22;52868;49.758;9.586;2023-02-16T00:14:33;4.00;77.00
66086;DHT22;52868;49.758;9.586;2023-02-16T00:16:59;4.00;77.10
66086;DHT22;52868;49.758;9.586;2023-02-16T00:19:43;3.90;77.30
66086;DHT22;52868;49.758;9.586;2023-02-16T00:22:09;3.90;77.40
66086;DHT22;52868;49.758;9.586;2023-02-16T00:24:35;3.90;77.30
66086;DHT22;52868;49.758;9.586;2023-02-16T00:27:02;3.80;77.20
66086;DHT22;52868;49.758;9.586;2023-02-16T00:29:33;3.90;77.30
66086;DHT22;52868;49.758;9.586;2023-02-16T00:32:01;4.00;77.20
66086;DHT22;52868;49.758;9.586;2023-02-16T00:36:57;4.00;77.10
66086;DHT22;52868;49.758;9.586;2023-02-16T00:39:24;4.00;76.90
66086;DHT22;52868;49.758;9.586;2023-02-16T00:41:53;4.10;76.80
66086;DHT22;52868;49.758;9.586;2023-02-16T00:44:26;4.10;76.70
66086;DHT22;52868;49.758;9.586;2023-02-16T00:46:53;4.00;77.20
66086;DHT22;52868;49.758;9.586;2023-02-16T00:49:21;4.00;77.10
66086;DHT22;52868;49.758;9.586;2023-02-16T00:51:47;4.00;76.90
66086;DHT22;52868;49.758;9.586;2023-02-16T00:54:13;4.00;76.90
66086;DHT22;52868;49.758;9.586;2023-02-16T00:56:40;4.00;77.10
66086;DHT22;52868;49.758;9.586;2023-02-16T00:59:11;4.00;77.10
66086;DHT22;52868;49.758;9.586;2023-02-16T01:01:39;4.10;76.90
66086;DHT22;52868;49.758;9.586;2023-02-16T01:04:06;4.00;76.70
66086;DHT22;52868;49.758;9.586;2023-02-16T01:06:32;4.10;76.80
66086;DHT22;52868;49.758;9.586;2023-02-16T01:09:19;4.10;76.50
66086;DHT22;52868;49.758;9.586;2023-02-16T01:12:15;4.10;76.30
66086;DHT22;52868;49.758;9.586;2023-02-16T01:14:42;4.00;76.20
66086;DHT22;52868;49.758;9.586;2023-02-16T01:17:10;4.10;76.30
66086;DHT22;52868;49.758;9.586;2023-02-16T01:19:36;4.10;76.40
66086;DHT22;52868;49.758;9.586;2023-02-16T01:22:01;4.00;76.20
66086;DHT22;52868;49.758;9.586;2023-02-16T01:24:27;4.10;76.10
66086;DHT22;52868;49.758;9.586;2023-02-16T01:26:53;4.10;75.90
66086;DHT22;52868;49.758;9.586;2023-02-16T01:29:20;4.10;75.70
66086;DHT22;52868;49.758;9.586;2023-02-16T01:31:46;4.00;76.00
66086;DHT22;52868;49.758;9.586;2023-02-16T01:34:13;4.00;75.80
66086;DHT22;52868;49.758;9.586;2023-02-16T01:36:44;3.90;75.90
66086;DHT22;52868;49.758;9.586;2023-02-16T01:39:12;3.90;76.10
66086;DHT22;52868;49.758;9.586;2023-02-16T01:44:16;3.90;76.00
66086;DHT22;52868;49.758;9.586;2023-02-16T01:47:08;3.90;75.90
66086;DHT22;52868;49.758;9.586;2023-02-16T01:49:37;3.90;75.80
66086;DHT22;52868;49.758;9.586;2023-02-16T01:52:33;3.70;76.00
66086;DHT22;52868;49.758;9.586;2023-02-16T01:55:41;3.70;76.20
66086;DHT22;52868;49.758;9.586;2023-02-16T01:58:14;3.70;76.10
66086;DHT22;52868;49.758;9.586;2023-02-16T02:03:22;3.70;76.00
66086;DHT22;52868;49.758;9.586;2023-02-16T02:06:09;3.80;76.10
66086;DHT22;52868;49.758;9.586;2023-02-16T02:08:45;4.00;75.70
66086;DHT22;52868;49.758;9.586;2023-02-16T02:11:28;4.00;75.80
66086;DHT22;52868;49.758;9.586;2023-02-16T02:14:12;4.00;75.60
66086;DHT22;52868;49.758;9.586;2023-02-16T02:16:38;4.00;75.50
66086;DHT22;52868;49.758;9.586;2023-02-16T02:19:04;3.90;75.60
66086;DHT22;52868;49.758;9.586;2023-02-16T02:30:31;3.70;75.50
66086;DHT22;52868;49.758;9.586;2023-02-16T02:41:27;3.70;75.10
66086;DHT22;52868;49.758;9.586;2023-02-16T02:44:17;3.70;75.30
66086;DHT22;52868;49.758;9.586;2023-02-16T02:46:44;3.60;75.40
66086;DHT22;52868;49.758;9.586;2023-02-16T02:49:10;3.60;75.50
66086;DHT22;52868;49.758;9.586;2023-02-16T02:51:36;3.60;75.60
66086;DHT22;52868;49.758;9.586;2023-02-16T03:00:25;3.70;75.30
66086;DHT22;52868;49.758;9.586;2023-02-16T03:03:14;3.80;74.80
66086;DHT22;52868;49.758;9.586;2023-02-16T03:06:10;3.80;74.60
66086;DHT22;52868;49.758;9.586;2023-02-16T03:08:40;3.80;74.70
66086;DHT22;52868;49.758;9.586;2023-02-16T03:11:22;3.80;74.80
66086;DHT22;52868;49.758;9.586;2023-02-16T03:16:48;3.80;74.60
66086;DHT22;52868;49.758;9.586;2023-02-16T03:19:16;3.80;74.40
66086;DHT22;52868;49.758;9.586;2023-02-16T03:22:02;3.70;74.70
66086;DHT22;52868;49.758;9.586;2023-02-16T03:24:46;3.70;74.70
66086;DHT22;52868;49.758;9.586;2023-02-16T03:27:37;3.70;74.20
66086;DHT22;52868;49.758;9.586;2023-02-16T03:30:23;3.70;74.50
66086;DHT22;52868;49.758;9.586;2023-02-16T03:32:50;3.50;74.40
66086;DHT22;52868;49.758;9.586;2023-02-16T03:35:16;3.60;74.80
66086;DHT22;52868;49.758;9.586;2023-02-16T03:37:43;3.70;74.50
66086;DHT22;52868;49.758;9.586;2023-02-16T03:40:12;3.50;74.30
66086;DHT22;52868;49.758;9.586;2023-02-16T03:42:58;3.50;74.40
66086;DHT22;52868;49.758;9.586;2023-02-16T03:45:24;3.30;74.90
66086;DHT22;52868;49.758;9.586;2023-02-16T03:47:50;3.30;74.80
66086;DHT22;52868;49.758;9.586;2023-02-16T03:50:16;3.30;75.10
66086;DHT22;52868;49.758;9.586;2023-02-16T03:52:42;3.20;75.00
66086;DHT22;52868;49.758;9.586;2023-02-16T03:55:07;3.20;75.20
66086;DHT22;52868;49.758;9.586;2023-02-16T03:57:33;3.20;75.40
66086;DHT22;52868;49.758;9.586;2023-02-16T03:59:59;3.20;75.50
66086;DHT22;52868;49.758;9.586;2023-02-16T04:02:28;3.20;75.50
66086;DHT22;52868;49.758;9.586;2023-02-16T04:04:54;3.30;75.40
66086;DHT22;52868;49.758;9.586;2023-02-16T04:07:19;3.20;75.40
66086;DHT22;52868;49.758;9.586;2023-02-16T04:09:45;3.20;75.40
66086;DHT22;52868;49.758;9.586;2023-02-16T04:12:11;3.20;75.30
66086;DHT22;52868;49.758;9.586;2023-02-16T04:14:56;3.20;75.50
66086;DHT22;52868;49.758;9.586;2023-02-16T04:17:22;3.20;75.30
66086;DHT22;52868;49.758;9.586;2023-02-16T04:19:48;3.20;75.50
66086;DHT22;52868;49.758;9.586;2023-02-16T04:22:13;3.30;75.30
66086;DHT22;52868;49.758;9.586;2023-02-16T04:24:39;3.20;75.30
66086;DHT22;52868;49.758;9.586;2023-02-16T04:27:05;3.20;75.60
66086;DHT22;52868;49.758;9.586;2023-02-16T04:29:30;3.20;75.50
66086;DHT22;52868;49.758;9.586;2023-02-16T04:31:56;3.20;75.50
66086;DHT22;52868;49.758;9.586;2023-02-16T04:34:22;3.20;75.40
66086;DHT22;52868;49.758;9.586;2023-02-16T04:36:48;3.20;75.40
66086;DHT22;52868;49.758;9.586;2023-02-16T04:39:14;3.20;75.50
66086;DHT22;52868;49.758;9.586;2023-02-16T04:41:39;3.40;75.50
66086;DHT22;52868;49.758;9.586;2023-02-16T04:44:05;3.40;75.20
66086;DHT22;52868;49.758;9.586;2023-02-16T04:46:30;3.30;75.30
66086;DHT22;52868;49.758;9.586;2023-02-16T04:48:56;3.20;75.20
66086;DHT22;52868;49.758;9.586;2023-02-16T04:51:22;3.20;75.30
66086;DHT22;52868;49.758;9.586;2023-02-16T04:53:47;3.20;75.80
66086;DHT22;52868;49.758;9.586;2023-02-16T04:56:13;3.20;75.70
66086;DHT22;52868;49.758;9.586;2023-02-16T04:58:39;3.20;75.70
66086;DHT22;52868;49.758;9.586;2023-02-16T05:01:05;3.20;75.70
66086;DHT22;52868;49.758;9.586;2023-02-16T05:03:31;3.30;75.60
66086;DHT22;52868;49.758;9.586;2023-02-16T05:05:56;3.30;75.70
66086;DHT22;52868;49.758;9.586;2023-02-16T05:08:22;3.40;75.70
66086;DHT22;52868;49.758;9.586;2023-02-16T05:10:48;3.40;75.40
66086;DHT22;52868;49.758;9.586;2023-02-16T05:13:34;3.40;75.40
66086;DHT22;52868;49.758;9.586;2023-02-16T05:16:20;3.40;75.20
66086;DHT22;52868;49.758;9.586;2023-02-16T05:18:46;3.30;75.20
66086;DHT22;52868;49.758;9.586;2023-02-16T05:21:12;3.30;75.50
66086;DHT22;52868;49.758;9.586;2023-02-16T05:24:00;3.30;75.70
66086;DHT22;52868;49.758;9.586;2023-02-16T05:26:27;3.20;75.60
66086;DHT22;52868;49.758;9.586;2023-02-16T05:28:53;3.20;75.70
66086;DHT22;52868;49.758;9.586;2023-02-16T05:31:19;3.30;75.80
66086;DHT22;52868;49.758;9.586;2023-02-16T05:33:45;3.30;75.70
66086;DHT22;52868;49.758;9.586;2023-02-16T05:36:10;3.40;75.50
66086;DHT22;52868;49.758;9.586;2023-02-16T05:38:36;3.40;75.50
66086;DHT22;52868;49.758;9.586;2023-02-16T05:41:02;3.30;75.70
66086;DHT22;52868;49.758;9.586;2023-02-16T05:43:27;3.30;75.70
66086;DHT22;52868;49.758;9.586;2023-02-16T05:45:53;3.40;75.90
66086;DHT22;52868;49.758;9.586;2023-02-16T05:48:19;3.40;75.50
66086;DHT22;52868;49.758;9.586;2023-02-16T05:50:45;3.30;75.50
66086;DHT22;52868;49.758;9.586;2023-02-16T05:53:10;3.30;75.70
66086;DHT22;52868;49.758;9.586;2023-02-16T05:55:36;3.30;75.80
66086;DHT22;52868;49.758;9.586;2023-02-16T05:58:01;3.30;75.70
66086;DHT22;52868;49.758;9.586;2023-02-16T06:00:27;3.30;75.80
66086;DHT22;52868;49.758;9.586;2023-02-16T06:02:58;3.30;75.80
66086;DHT22;52868;49.758;9.586;2023-02-16T06:05:24;3.30;76.00
66086;DHT22;52868;49.758;9.586;2023-02-16T06:07:49;3.30;75.70
66086;DHT22;52868;49.758;9.586;2023-02-16T06:10:16;3.30;75.70
66086;DHT22;52868;49.758;9.586;2023-02-16T06:12:41;3.40;75.60
66086;DHT22;52868;49.758;9.586;2023-02-16T06:15:07;3.40;75.50
66086;DHT22;52868;49.758;9.586;2023-02-16T06:17:33;3.30;75.50
66086;DHT22;52868;49.758;9.586;2023-02-16T06:19:59;3.40;76.00
66086;DHT22;52868;49.758;9.586;2023-02-16T06:22:24;3.40;75.70
66086;DHT22;52868;49.758;9.586;2023-02-16T06:24:50;3.40;75.70
66086;DHT22;52868;49.758;9.586;2023-02-16T06:27:15;3.40;75.80
66086;DHT22;52868;49.758;9.586;2023-02-16T06:29:41;3.30;75.80
66086;DHT22;52868;49.758;9.586;2023-02-16T06:32:07;3.40;75.80
66086;DHT22;52868;49.758;9.586;2023-02-16T06:34:32;3.30;75.80
66086;DHT22;52868;49.758;9.586;2023-02-16T06:36:58;3.20;76.00
66086;DHT22;52868;49.758;9.586;2023-02-16T06:39:23;3.20;76.20
66086;DHT22;52868;49.758;9.586;2023-02-16T06:41:49;3.30;76.00
66086;DHT22;52868;49.758;9.586;2023-02-16T06:44:15;3.20;75.80
66086;DHT22;52868;49.758;9.586;2023-02-16T06:46:42;3.30;76.00
66086;DHT22;52868;49.758;9.586;2023-02-16T06:49:26;3.30;76.00
66086;DHT22;52868;49.758;9.586;2023-02-16T06:51:52;3.30;75.80
66086;DHT22;52868;49.758;9.586;2023-02-16T06:54:18;3.20;75.90
66086;DHT22;52868;49.758;9.586;2023-02-16T06:56:44;3.30;76.10
66086;DHT22;52868;49.758;9.586;2023-02-16T06:59:10;3.30;76.00
66086;DHT22;52868;49.758;9.586;2023-02-16T07:01:36;3.40;75.70
66086;DHT22;52868;49.758;9.586;2023-02-16T07:04:02;3.40;75.50
66086;DHT22;52868;49.758;9.586;2023-02-16T07:06:28;3.40;75.30
66086;DHT22;52868;49.758;9.586;2023-02-16T07:08:54;3.40;75.30
66086;DHT22;52868;49.758;9.586;2023-02-16T07:11:20;3.30;75.60
66086;DHT22;52868;49.758;9.586;2023-02-16T07:13:45;3.40;75.80
66086;DHT22;52868;49.758;9.586;2023-02-16T07:16:12;3.40;75.70
66086;DHT22;52868;49.758;9.586;2023-02-16T07:18:38;3.40;75.60
66086;DHT22;52868;49.758;9.586;2023-02-16T07:21:04;3.50;75.40
66086;DHT22;52868;49.758;9.586;2023-02-16T07:23:31;3.40;75.40
66086;DHT22;52868;49.758;9.586;2023-02-16T07:25:57;3.40;75.60
66086;DHT22;52868;49.758;9.586;2023-02-16T07:28:22;3.40;75.50
66086;DHT22;52868;49.758;9.586;2023-02-16T07:30:48;3.30;75.60
66086;DHT22;52868;49.758;9.586;2023-02-16T07:33:15;3.30;75.40
66086;DHT22;52868;49.758;9.586;2023-02-16T07:35:41;3.30;75.60
66086;DHT22;52868;49.758;9.586;2023-02-16T07:38:07;3.40;75.90
66086;DHT22;52868;49.758;9.586;2023-02-16T07:40:32;3.40;75.50
66086;DHT22;52868;49.758;9.586;2023-02-16T07:42:59;3.30;75.30
66086;DHT22;52868;49.758;9.586;2023-02-16T07:45:25;3.20;75.50
66086;DHT22;52868;49.758;9.586;2023-02-16T07:47:51;3.20;75.80
66086;DHT22;52868;49.758;9.586;2023-02-16T07:50:17;3.20;75.60
66086;DHT22;52868;49.758;9.586;2023-02-16T07:52:42;3.30;75.90
66086;DHT22;52868;49.758;9.586;2023-02-16T07:55:09;3.30;75.90
66086;DHT22;52868;49.758;9.586;2023-02-16T07:57:37;3.30;75.90
66086;DHT22;52868;49.758;9.586;2023-02-16T08:00:04;3.30;76.10
66086;DHT22;52868;49.758;9.586;2023-02-16T08:02:30;3.40;75.70
66086;DHT22;52868;49.758;9.586;2023-02-16T08:04:55;3.30;75.70
66086;DHT22;52868;49.758;9.586;2023-02-16T08:07:21;3.40;76.10
66086;DHT22;52868;49.758;9.586;2023-02-16T08:09:47;3.40;75.70
66086;DHT22;52868;49.758;9.586;2023-02-16T08:12:14;3.40;75.80
66086;DHT22;52868;49.758;9.586;2023-02-16T08:14:40;3.40;75.50
66086;DHT22;52868;49.758;9.586;2023-02-16T08:17:07;3.50;75.70
66086;DHT22;52868;49.758;9.586;2023-02-16T08:19:32;3.60;75.50
66086;DHT22;52868;49.758;9.586;2023-02-16T08:21:59;3.60;75.40
66086;DHT22;52868;49.758;9.586;2023-02-16T08:24:27;3.60;75.30
66086;DHT22;52868;49.758;9.586;2023-02-16T08:26:53;3.60;75.20
66086;DHT22;52868;49.758;9.586;2023-02-16T08:29:21;3.60;75.20
66086;DHT22;52868;49.758;9.586;2023-02-16T08:31:47;3.70;75.20
66086;DHT22;52868;49.758;9.586;2023-02-16T08:34:15;3.70;75.00
66086;DHT22;52868;49.758;9.586;2023-02-16T08:36:43;3.60;75.00
66086;DHT22;52868;49.758;9.586;2023-02-16T08:39:17;3.50;75.50
66086;DHT22;52868;49.758;9.586;2023-02-16T08:41:45;3.70;75.40
66086;DHT22;52868;49.758;9.586;2023-02-16T08:44:12;3.70;75.00
66086;DHT22;52868;49.758;9.586;2023-02-16T08:46:39;3.70;75.10
66086;DHT22;52868;49.758;9.586;2023-02-16T08:49:06;3.70;75.00
66086;DHT22;52868;49.758;9.586;2023-02-16T08:51:35;3.70;74.80
66086;DHT22;52868;49.758;9.586;2023-02-16T08:54:02;3.60;74.80
66086;DHT22;52868;49.758;9.586;2023-02-16T08:56:29;3.60;75.20
66086;DHT22;52868;49.758;9.586;2023-02-16T08:58:55;3.70;75.10
66086;DHT22;52868;49.758;9.586;2023-02-16T09:01:21;3.70;74.90
66086;DHT22;52868;49.758;9.586;2023-02-16T09:03:48;3.70;74.90
66086;DHT22;52868;49.758;9.586;2023-02-16T09:06:15;3.70;74.70
66086;DHT22;52868;49.758;9.586;2023-02-16T09:08:42;3.70;74.70
66086;DHT22;52868;49.758;9.586;2023-02-16T09:11:11;3.70;74.60
66086;DHT22;52868;49.758;9.586;2023-02-16T09:13:38;3.70;75.10
66086;DHT22;52868;49.758;9.586;2023-02-16T09:16:07;3.70;75.00
66086;DHT22;52868;49.758;9.586;2023-02-16T09:18:34;3.70;74.70
66086;DHT22;52868;49.758;9.586;2023-02-16T09:21:06;3.70;74.80
66086;DHT22;52868;49.758;9.586;2023-02-16T09:23:36;3.70;75.00
66086;DHT22;52868;49.758;9.586;2023-02-16T09:26:01;3.60;75.00
66086;DHT22;52868;49.758;9.586;2023-02-16T09:28:29;3.50;75.30
66086;DHT22;52868;49.758;9.586;2023-02-16T09:30:55;3.50;75.50
66086;DHT22;52868;49.758;9.586;2023-02-16T09:33:20;3.70;75.50
66086;DHT22;52868;49.758;9.586;2023-02-16T09:35:46;3.70;75.50
66086;DHT22;52868;49.758;9.586;2023-02-16T09:38:12;3.70;75.40
66086;DHT22;52868;49.758;9.586;2023-02-16T09:40:41;3.70;75.40
66086;DHT22;52868;49.758;9.586;2023-02-16T09:45:46;3.70;75.30
66086;DHT22;52868;49.758;9.586;2023-02-16T09:48:32;3.70;75.80
66086;DHT22;52868;49.758;9.586;2023-02-16T09:51:00;3.70;75.60
66086;DHT22;52868;49.758;9.586;2023-02-16T09:53:38;3.70;75.50
66086;DHT22;52868;49.758;9.586;2023-02-16T10:02:36;3.80;75.70
66086;DHT22;52868;49.758;9.586;2023-02-16T10:05:13;3.80;75.70
66086;DHT22;52868;49.758;9.586;2023-02-16T10:08:04;3.70;75.80
66086;DHT22;52868;49.758;9.586;2023-02-16T10:10:45;3.80;75.90
66086;DHT22;52868;49.758;9.586;2023-02-16T10:16:23;3.70;75.90
66086;DHT22;52868;49.758;9.586;2023-02-16T10:18:52;3.80;75.90
66086;DHT22;52868;49.758;9.586;2023-02-16T10:21:24;3.80;76.00
66086;DHT22;52868;49.758;9.586;2023-02-16T10:23:51;3.80;76.10
66086;DHT22;52868;49.758;9.586;2023-02-16T10:26:37;3.80;76.10
66086;DHT22;52868;49.758;9.586;2023-02-16T10:29:13;3.90;76.20
66086;DHT22;52868;49.758;9.586;2023-02-16T10:39:40;3.90;76.10
66086;DHT22;52868;49.758;9.586;2023-02-16T10:42:22;4.00;76.20
66086;DHT22;52868;49.758;9.586;2023-02-16T10:47:41;3.90;76.30
66086;DHT22;52868;49.758;9.586;2023-02-16T10:50:42;4.00;76.30
66086;DHT22;52868;49.758;9.586;2023-02-16T10:55:56;4.10;76.20
66086;DHT22;52868;49.758;9.586;2023-02-16T10:58:28;4.10;76.40
66086;DHT22;52868;49.758;9.586;2023-02-16T11:01:13;4.20;76.20
66086;DHT22;52868;49.758;9.586;2023-02-16T11:03:45;4.20;76.20
66086;DHT22;52868;49.758;9.586;2023-02-16T11:06:23;4.20;76.30
66086;DHT22;52868;49.758;9.586;2023-02-16T11:08:54;4.20;76.40
66086;DHT22;52868;49.758;9.586;2023-02-16T11:11:29;4.20;76.50
66086;DHT22;52868;49.758;9.586;2023-02-16T11:14:04;4.20;76.70
66086;DHT22;52868;49.758;9.586;2023-02-16T11:16:30;4.20;76.70
66086;DHT22;52868;49.758;9.586;2023-02-16T11:19:02;4.20;76.70
66086;DHT22;52868;49.758;9.586;2023-02-16T11:24:11;4.30;76.50
66086;DHT22;52868;49.758;9.586;2023-02-16T11:26:37;4.40;76.10
66086;DHT22;52868;49.758;9.586;2023-02-16T11:29:19;4.40;76.10
66086;DHT22;52868;49.758;9.586;2023-02-16T11:31:45;4.40;76.30
66086;DHT22;52868;49.758;9.586;2023-02-16T11:36:46;4.40;76.60
66086;DHT22;52868;49.758;9.586;2023-02-16T11:39:22;4.40;76.70
66086;DHT22;52868;49.758;9.586;2023-02-16T11:41:54;4.50;76.70
66086;DHT22;52868;49.758;9.586;2023-02-16T11:44:32;4.50;76.60
66086;DHT22;52868;49.758;9.586;2023-02-16T11:47:05;4.50;76.80
66086;DHT22;52868;49.758;9.586;2023-02-16T11:49:34;4.40;76.80
66086;DHT22;52868;49.758;9.586;2023-02-16T11:52:01;4.50;76.80
66086;DHT22;52868;49.758;9.586;2023-02-16T11:54:48;4.50;76.90
66086;DHT22;52868;49.758;9.586;2023-02-16T11:57:14;4.50;76.90
66086;DHT22;52868;49.758;9.586;2023-02-16T11:59:47;4.60;76.80
66086;DHT22;52868;49.758;9.586;2023-02-16T12:07:44;4.70;76.70
66086;DHT22;52868;49.758;9.586;2023-02-16T12:10:24;4.70;76.80
66086;DHT22;52868;49.758;9.586;2023-02-16T12:13:00;4.70;76.70
66086;DHT22;52868;49.758;9.586;2023-02-16T12:26:39;4.90;76.80
66086;DHT22;52868;49.758;9.586;2023-02-16T12:37:11;5.00;76.20
66086;DHT22;52868;49.758;9.586;2023-02-16T12:39:57;5.00;76.20
66086;DHT22;52868;49.758;9.586;2023-02-16T12:42:35;5.00;76.60
66086;DHT22;52868;49.758;9.586;2023-02-16T12:45:08;5.00;76.70
66086;DHT22;52868;49.758;9.586;2023-02-16T12:47:39;5.10;76.60
66086;DHT22;52868;49.758;9.586;2023-02-16T12:50:29;5.10;76.90
66086;DHT22;52868;49.758;9.586;2023-02-16T12:53:28;5.10;77.10
66086;DHT22;52868;49.758;9.586;2023-02-16T12:55:54;5.20;77.20
66086;DHT22;52868;49.758;9.586;2023-02-16T12:58:29;5.20;76.90
66086;DHT22;52868;49.758;9.586;2023-02-16T13:00:59;5.20;76.70
66086;DHT22;52868;49.758;9.586;2023-02-16T13:03:48;5.20;76.40
66086;DHT22;52868;49.758;9.586;2023-02-16T13:06:35;5.20;76.80
66086;DHT22;52868;49.758;9.586;2023-02-16T13:12:09;5.20;76.60
66086;DHT22;52868;49.758;9.586;2023-02-16T13:14:41;5.20;76.80
66086;DHT22;52868;49.758;9.586;2023-02-16T13:17:13;5.20;77.00
66086;DHT22;52868;49.758;9.586;2023-02-16T13:19:40;5.20;76.60
66086;DHT22;52868;49.758;9.586;2023-02-16T13:44:02;5.40;77.30
66086;DHT22;52868;49.758;9.586;2023-02-16T13:46:37;5.50;77.20
66086;DHT22;52868;49.758;9.586;2023-02-16T13:49:03;5.50;77.30
66086;DHT22;52868;49.758;9.586;2023-02-16T13:51:43;5.50;77.00
66086;DHT22;52868;49.758;9.586;2023-02-16T13:54:31;5.50;77.40
66086;DHT22;52868;49.758;9.586;2023-02-16T13:56:57;5.50;77.10
66086;DHT22;52868;49.758;9.586;2023-02-16T14:01:50;5.50;77.20
66086;DHT22;52868;49.758;9.586;2023-02-16T14:07:52;5.60;77.50
66086;DHT22;52868;49.758;9.586;2023-02-16T14:09:53;5.60;76.90
66086;DHT22;52868;49.758;9.586;2023-02-16T14:12:24;5.50;76.80
66086;DHT22;52868;49.758;9.586;2023-02-16T14:22:42;5.60;77.60
66086;DHT22;52868;49.758;9.586;2023-02-16T14:27:52;5.60;76.80
66086;DHT22;52868;49.758;9.586;2023-02-16T14:30:31;5.60;77.00
66086;DHT22;52868;49.758;9.586;2023-02-16T14:35:40;5.60;77.30
66086;DHT22;52868;49.758;9.586;2023-02-16T14:38:26;5.60;76.60
66086;DHT22;52868;49.758;9.586;2023-02-16T14:41:04;5.60;76.10
66086;DHT22;52868;49.758;9.586;2023-02-16T14:43:35;5.70;76.60
66086;DHT22;52868;49.758;9.586;2023-02-16T14:49:01;5.60;76.60
66086;DHT22;52868;49.758;9.586;2023-02-16T14:55:05;5.60;76.60
66086;DHT22;52868;49.758;9.586;2023-02-16T15:00:34;5.70;76.50
66086;DHT22;52868;49.758;9.586;2023-02-16T15:03:15;5.70;76.30
66086;DHT22;52868;49.758;9.586;2023-02-16T15:05:41;5.60;76.20
66086;DHT22;52868;49.758;9.586;2023-02-16T15:08:18;5.60;76.20
66086;DHT22;52868;49.758;9.586;2023-02-16T15:10:49;5.60;76.60
66086;DHT22;52868;49.758;9.586;2023-02-16T15:15:48;5.60;76.30
66086;DHT22;52868;49.758;9.586;2023-02-16T15:18:17;5.60;76.60
66086;DHT22;52868;49.758;9.586;2023-02-16T15:20:46;5.60;76.10
66086;DHT22;52868;49.758;9.586;2023-02-16T15:23:19;5.60;76.20
66086;DHT22;52868;49.758;9.586;2023-02-16T15:26:27;5.70;76.40
66086;DHT22;52868;49.758;9.586;2023-02-16T15:29:00;5.60;76.90
66086;DHT22;52868;49.758;9.586;2023-02-16T15:31:36;5.60;76.40
66086;DHT22;52868;49.758;9.586;2023-02-16T15:34:09;5.60;76.40
66086;DHT22;52868;49.758;9.586;2023-02-16T15:36:43;5.70;77.00
66086;DHT22;52868;49.758;9.586;2023-02-16T15:39:15;5.70;77.00
66086;DHT22;52868;49.758;9.586;2023-02-16T15:41:44;5.70;76.50
66086;DHT22;52868;49.758;9.586;2023-02-16T15:44:31;5.60;76.40
66086;DHT22;52868;49.758;9.586;2023-02-16T15:47:20;5.70;76.60
66086;DHT22;52868;49.758;9.586;2023-02-16T15:49:46;5.70;76.50
66086;DHT22;52868;49.758;9.586;2023-02-16T15:52:18;5.70;76.50
66086;DHT22;52868;49.758;9.586;2023-02-16T15:54:46;5.70;76.50
66086;DHT22;52868;49.758;9.586;2023-02-16T15:57:45;5.70;77.00
66086;DHT22;52868;49.758;9.586;2023-02-16T16:00:21;5.70;76.80
66086;DHT22;52868;49.758;9.586;2023-02-16T16:02:54;5.70;76.80
66086;DHT22;52868;49.758;9.586;2023-02-16T16:05:23;5.70;77.10
66086;DHT22;52868;49.758;9.586;2023-02-16T16:07:50;5.70;77.70
66086;DHT22;52868;49.758;9.586;2023-02-16T16:10:27;5.70;77.40
66086;DHT22;52868;49.758;9.586;2023-02-16T16:12:59;5.70;77.80
66086;DHT22;52868;49.758;9.586;2023-02-16T16:15:26;5.70;77.50
66086;DHT22;52868;49.758;9.586;2023-02-16T16:17:53;5.70;77.30
66086;DHT22;52868;49.758;9.586;2023-02-16T16:20:34;5.70;77.10
66086;DHT22;52868;49.758;9.586;2023-02-16T16:23:04;5.70;77.30
66086;DHT22;52868;49.758;9.586;2023-02-16T16:27:59;5.70;77.50
66086;DHT22;52868;49.758;9.586;2023-02-16T16:30:27;5.70;77.70
66086;DHT22;52868;49.758;9.586;2023-02-16T16:33:10;5.70;77.90
66086;DHT22;52868;49.758;9.586;2023-02-16T16:35:38;5.70;77.70
66086;DHT22;52868;49.758;9.586;2023-02-16T16:38:07;5.70;77.40
66086;DHT22;52868;49.758;9.586;2023-02-16T16:40:50;5.70;77.30
66086;DHT22;52868;49.758;9.586;2023-02-16T16:43:17;5.70;77.20
66086;DHT22;52868;49.758;9.586;2023-02-16T16:46:09;5.70;77.00
66086;DHT22;52868;49.758;9.586;2023-02-16T16:48:43;5.70;77.20
66086;DHT22;52868;49.758;9.586;2023-02-16T16:51:20;5.70;77.30
66086;DHT22;52868;49.758;9.586;2023-02-16T16:53:59;5.70;77.10
66086;DHT22;52868;49.758;9.586;2023-02-16T16:56:27;5.70;77.30
66086;DHT22;52868;49.758;9.586;2023-02-16T16:58:55;5.70;77.10
66086;DHT22;52868;49.758;9.586;2023-02-16T17:01:26;5.70;77.00
66086;DHT22;52868;49.758;9.586;2023-02-16T17:03:53;5.70;77.40
66086;DHT22;52868;49.758;9.586;2023-02-16T17:06:19;5.70;77.80
66086;DHT22;52868;49.758;9.586;2023-02-16T17:08:45;5.70;77.40
66086;DHT22;52868;49.758;9.586;2023-02-16T17:11:25;5.70;77.20
66086;DHT22;52868;49.758;9.586;2023-02-16T17:13:51;5.70;77.20
66086;DHT22;52868;49.758;9.586;2023-02-16T17:16:23;5.60;77.10
66086;DHT22;52868;49.758;9.586;2023-02-16T17:18:50;5.70;77.20
66086;DHT22;52868;49.758;9.586;2023-02-16T17:21:16;5.70;77.60
66086;DHT22;52868;49.758;9.586;2023-02-16T17:23:41;5.60;77.60
66086;DHT22;52868;49.758;9.586;2023-02-16T17:26:07;5.70;77.80
66086;DHT22;52868;49.758;9.586;2023-02-16T17:28:33;5.60;77.80
66086;DHT22;52868;49.758;9.586;2023-02-16T17:31:05;5.70;77.50
66086;DHT22;52868;49.758;9.586;2023-02-16T17:33:31;5.60;77.30
66086;DHT22;52868;49.758;9.586;2023-02-16T17:35:58;5.70;77.20
66086;DHT22;52868;49.758;9.586;2023-02-16T17:38:25;5.60;77.30
66086;DHT22;52868;49.758;9.586;2023-02-16T17:40:53;5.70;77.80
66086;DHT22;52868;49.758;9.586;2023-02-16T17:43:19;5.70;77.70
66086;DHT22;52868;49.758;9.586;2023-02-16T17:45:46;5.70;78.20
66086;DHT22;52868;49.758;9.586;2023-02-16T17:48:35;5.70;78.20
66086;DHT22;52868;49.758;9.586;2023-02-16T17:51:00;5.60;77.70
66086;DHT22;52868;49.758;9.586;2023-02-16T17:53:26;5.60;77.50
66086;DHT22;52868;49.758;9.586;2023-02-16T17:55:55;5.70;77.30
66086;DHT22;52868;49.758;9.586;2023-02-16T17:58:22;5.60;77.10
66086;DHT22;52868;49.758;9.586;2023-02-16T18:00:48;5.70;77.10
66086;DHT22;52868;49.758;9.586;2023-02-16T18:03:14;5.70;77.30
66086;DHT22;52868;49.758;9.586;2023-02-16T18:05:39;5.70;77.00
66086;DHT22;52868;49.758;9.586;2023-02-16T18:08:05;5.60;77.10
66086;DHT22;52868;49.758;9.586;2023-02-16T18:12:59;5.70;77.30
66086;DHT22;52868;49.758;9.586;2023-02-16T18:15:25;5.70;78.20
66086;DHT22;52868;49.758;9.586;2023-02-16T18:17:51;5.70;77.80
66086;DHT22;52868;49.758;9.586;2023-02-16T18:20:16;5.70;77.70
66086;DHT22;52868;49.758;9.586;2023-02-16T18:22:42;5.60;77.50
66086;DHT22;52868;49.758;9.586;2023-02-16T18:25:07;5.60;77.40
66086;DHT22;52868;49.758;9.586;2023-02-16T18:27:33;5.70;77.20
66086;DHT22;52868;49.758;9.586;2023-02-16T18:29:59;5.60;77.10
66086;DHT22;52868;49.758;9.586;2023-02-16T18:32:24;5.70;77.30
66086;DHT22;52868;49.758;9.586;2023-02-16T18:34:50;5.60;78.10
66086;DHT22;52868;49.758;9.586;2023-02-16T18:37:16;5.60;78.10